首页
METAR-TAF:

METAR-TAF

机场 :

巴黎夏尔·戴高乐机场

巴黎戴高乐, 法国

纬度: 49-01N, 经度: 002-32E, 海拔: 118米

当前天气观测

该预报发布于16分钟前的08:30 UTC
风速8节,风向西
温度 19°C
湿度 78%
气压 1017 hPa
能见度10公里或以上
少量云层高于1300英尺
多云层高于2300英尺

METAR: LFPG 140830Z 26008KT 9999 FEW013 BKN023 19/15 Q1017 NOSIG

时间: 10:46 (08:46 UTC)

预报

该预报发布于3小时和46分钟前的05:00 UTC
预报有效从14日的 06点(UTC)到 15日的 12点(UTC)
风速10节,风向西
能见度10公里或以上
多云层高于1600英尺
短暂存在
从 14日的 06点(UTC)到 14日的 09点(UTC)
多云层高于1000英尺
几率 30% :
短暂存在
从 14日的 06点(UTC)到 14日的 08点(UTC)
多云层高于700英尺
成为
从 14日的 12点(UTC)到 14日的 14点(UTC)
风速12节,风向西转西北
能见度10公里或以上
1500米以下无云,无积雨云
短暂存在
从 15日的 01点(UTC)到 15日的 08点(UTC)
多云层高于1500英尺
几率 30% :
短暂存在
从 15日的 01点(UTC)到 15日的 07点(UTC)
多云层高于1000英尺

TAF: LFPG 140500Z 1406/1512 27010KT 9999 BKN016 TX25/1415Z TN16/1505Z TEMPO 1406/1409 BKN010 PROB30 TEMPO 1406/1408 BKN007 BECMG 1412/1414 30012KT CAVOK TEMPO 1501/1508 BKN015 PROB30 TEMPO 1501/1507 BKN010

超过4000个机场的气象观测和天气预报(METAR&TAF报告)。

可查询的气象台以黄色和红色小点在地图上表示。

将鼠标移到小点上方,可查看气象台名称。

然后点击查看天气观测和预报。

如需切换地图:点击带黑十字的绿色按钮放大地图;点击带横线的绿色按钮缩小地图;或者点击绿色箭头查看邻近地区的地图。


METAR-TAF: